createdAt,value
2019-05-26T00:01:51.299Z,38.02
2019-05-26T00:04:17.553Z,39.75
2019-05-26T00:06:45.656Z,39.29
2019-05-26T00:09:11.835Z,38.79
2019-05-26T00:11:38.088Z,39.52
2019-05-26T00:14:04.300Z,40.17
2019-05-26T00:16:30.681Z,39.63
2019-05-26T00:18:56.860Z,39.27
2019-05-26T00:21:24.603Z,39.75
2019-05-26T00:23:50.889Z,39.39
2019-05-26T00:26:17.183Z,40.35
2019-05-26T00:28:43.472Z,40.81
2019-05-26T00:31:09.654Z,38.40
2019-05-26T00:33:35.831Z,38.69
2019-05-26T00:36:02.161Z,37.29
2019-05-26T00:38:28.416Z,36.80
2019-05-26T00:40:54.611Z,36.54
2019-05-26T00:43:20.804Z,36.42
2019-05-26T00:45:47.085Z,35.77
2019-05-26T00:48:13.268Z,36.04
2019-05-26T00:50:39.564Z,36.74
2019-05-26T00:53:05.749Z,36.97
2019-05-26T00:55:31.915Z,36.07
2019-05-26T00:57:58.139Z,36.18
2019-05-26T01:00:41.959Z,36.87
2019-05-26T01:03:09.179Z,37.20
2019-05-26T01:05:35.457Z,36.78
2019-05-26T01:08:06.585Z,36.62
2019-05-26T01:10:32.602Z,37.78
2019-05-26T01:12:58.758Z,37.26
2019-05-26T01:15:24.945Z,37.36
2019-05-26T01:17:51.164Z,37.96
2019-05-26T01:20:17.433Z,38.16
2019-05-26T01:22:43.621Z,40.24
2019-05-26T01:25:10.216Z,39.68
2019-05-26T01:27:36.491Z,39.89
2019-05-26T01:30:05.411Z,39.19
2019-05-26T01:32:31.616Z,38.25
2019-05-26T01:34:57.781Z,39.50
2019-05-26T01:37:24.067Z,38.93
2019-05-26T01:39:50.276Z,38.63
2019-05-26T01:42:16.461Z,39.11
2019-05-26T01:44:42.766Z,39.17
2019-05-26T01:47:09.086Z,38.11
2019-05-26T01:49:35.247Z,38.32
2019-05-26T01:52:02.503Z,39.44
2019-05-26T01:54:28.955Z,38.90
2019-05-26T01:56:55.226Z,38.38
2019-05-26T01:59:21.386Z,37.79
2019-05-26T02:01:47.602Z,38.09
2019-05-26T02:04:13.762Z,38.80
2019-05-26T02:06:42.118Z,38.79
2019-05-26T02:09:08.651Z,38.32
2019-05-26T02:11:34.821Z,37.70
2019-05-26T02:14:01.117Z,37.42
2019-05-26T02:16:27.322Z,37.77
2019-05-26T02:18:53.580Z,38.34
2019-05-26T02:21:19.716Z,37.47
2019-05-26T02:23:46.058Z,37.82
2019-05-26T02:26:12.243Z,38.39
2019-05-26T02:28:38.426Z,39.97
2019-05-26T02:31:04.749Z,40.08
2019-05-26T02:33:30.943Z,39.27
2019-05-26T02:35:57.101Z,40.09
2019-05-26T02:38:26.247Z,38.84
2019-05-26T02:40:51.506Z,39.66
2019-05-26T02:43:17.892Z,40.35
2019-05-26T02:45:44.110Z,38.96
2019-05-26T02:48:10.263Z,39.15
2019-05-26T02:50:36.518Z,38.08
2019-05-26T02:53:02.818Z,36.80
2019-05-26T02:55:29.103Z,37.62
2019-05-26T02:57:55.251Z,35.90
2019-05-26T03:00:40.438Z,35.03
2019-05-26T03:03:07.519Z,34.03
2019-05-26T03:05:33.982Z,32.53
2019-05-26T03:08:01.686Z,30.95
2019-05-26T03:10:31.078Z,30.13
2019-05-26T03:13:00.448Z,30.21
2019-05-26T03:15:26.662Z,30.08
2019-05-26T03:17:53.149Z,29.77
2019-05-26T03:20:19.313Z,27.91
2019-05-26T03:22:47.832Z,26.48
2019-05-26T03:25:14.051Z,25.75
2019-05-26T03:27:40.512Z,24.50
2019-05-26T03:30:06.712Z,23.26
2019-05-26T03:32:33.014Z,22.73
2019-05-26T03:34:59.274Z,21.84
2019-05-26T03:37:25.482Z,21.10
2019-05-26T03:39:51.654Z,20.12
2019-05-26T03:42:17.817Z,19.06
2019-05-26T03:44:44.039Z,18.57
2019-05-26T03:47:10.231Z,18.85
2019-05-26T03:49:36.402Z,17.91
2019-05-26T03:52:02.609Z,17.43
2019-05-26T03:54:28.788Z,17.80
2019-05-26T03:56:54.983Z,17.48
2019-05-26T03:59:21.201Z,17.82
2019-05-26T04:01:47.345Z,18.15
2019-05-26T04:04:13.498Z,18.31
2019-05-26T04:06:39.713Z,18.99
2019-05-26T04:09:07.167Z,19.65
2019-05-26T04:11:33.391Z,18.73
2019-05-26T04:13:59.594Z,19.17
2019-05-26T04:16:25.783Z,19.40
2019-05-26T04:18:51.957Z,19.91
2019-05-26T04:21:18.149Z,18.12
2019-05-26T04:23:44.323Z,16.24
2019-05-26T04:26:10.478Z,15.16
2019-05-26T04:28:36.739Z,14.74
2019-05-26T04:31:03.325Z,13.32
2019-05-26T04:33:29.538Z,16.47
2019-05-26T04:35:55.721Z,16.47
2019-05-26T04:38:21.904Z,20.78
2019-05-26T04:40:48.048Z,22.37
2019-05-26T04:43:15.167Z,21.82
2019-05-26T04:45:41.731Z,22.59
2019-05-26T04:48:07.920Z,23.40
2019-05-26T04:50:34.093Z,23.41
2019-05-26T04:53:06.930Z,22.85
2019-05-26T04:55:28.368Z,21.44
2019-05-26T04:57:54.557Z,21.22
2019-05-26T05:00:20.835Z,22.00
2019-05-26T05:02:47.027Z,22.22
2019-05-26T05:05:13.309Z,20.62
2019-05-26T05:07:39.485Z,19.33
2019-05-26T05:10:05.739Z,18.79
2019-05-26T05:12:31.994Z,18.51
2019-05-26T05:14:58.286Z,20.46
2019-05-26T05:17:24.440Z,22.36
2019-05-26T05:19:50.768Z,21.75
2019-05-26T05:22:17.113Z,21.48
2019-05-26T05:24:43.352Z,20.62
2019-05-26T05:27:09.637Z,18.79
2019-05-26T05:29:35.823Z,18.72
2019-05-26T05:32:02.002Z,18.87
2019-05-26T05:34:28.222Z,20.91
2019-05-26T05:36:54.407Z,21.86
2019-05-26T05:39:20.563Z,21.17
2019-05-26T05:41:46.775Z,21.18
2019-05-26T05:44:12.951Z,21.00
2019-05-26T05:46:39.137Z,21.06
2019-05-26T05:49:05.349Z,21.49
2019-05-26T05:51:31.505Z,24.67
2019-05-26T05:53:57.808Z,24.87
2019-05-26T05:56:23.989Z,23.20
2019-05-26T05:58:50.182Z,22.62
2019-05-26T06:01:16.527Z,22.84
2019-05-26T06:03:42.743Z,22.99
2019-05-26T06:06:08.896Z,21.17
2019-05-26T06:08:35.073Z,21.98
2019-05-26T06:11:15.481Z,21.37
2019-05-26T06:13:29.446Z,20.00
2019-05-26T06:15:55.637Z,18.60
2019-05-26T06:18:21.841Z,18.24
2019-05-26T06:20:48.006Z,16.09
2019-05-26T06:23:14.194Z,19.13
2019-05-26T06:25:40.375Z,19.96
2019-05-26T06:28:06.651Z,19.81
2019-05-26T06:30:32.927Z,19.20
2019-05-26T06:32:59.128Z,17.89
2019-05-26T06:35:25.308Z,17.80
2019-05-26T06:37:51.577Z,19.10
2019-05-26T06:40:17.845Z,19.10
2019-05-26T06:42:44.104Z,19.71
2019-05-26T06:45:10.606Z,19.04
2019-05-26T06:47:36.794Z,19.69
2019-05-26T06:50:07.193Z,21.89
2019-05-26T06:52:33.376Z,20.22
2019-05-26T06:54:59.556Z,20.59
2019-05-26T06:57:25.745Z,21.86
2019-05-26T06:59:51.924Z,20.83
2019-05-26T07:02:18.115Z,20.66
2019-05-26T07:04:44.282Z,22.37
2019-05-26T07:07:10.463Z,23.46
2019-05-26T07:09:36.675Z,25.54
2019-05-26T07:12:02.931Z,27.10
2019-05-26T07:14:29.121Z,24.78
2019-05-26T07:16:55.318Z,22.42
2019-05-26T07:19:21.460Z,21.49
2019-05-26T07:21:47.734Z,20.83
2019-05-26T07:24:15.477Z,20.14
2019-05-26T07:26:41.629Z,21.79
2019-05-26T07:29:07.900Z,25.56
2019-05-26T07:31:34.714Z,22.07
2019-05-26T07:34:00.848Z,22.11
2019-05-26T07:36:27.137Z,24.19
2019-05-26T07:38:53.343Z,24.10
2019-05-26T07:41:19.509Z,23.40
2019-05-26T07:43:45.813Z,23.15
2019-05-26T07:46:12.013Z,24.45
2019-05-26T07:48:38.174Z,23.25
2019-05-26T07:51:04.348Z,21.93
2019-05-26T07:53:30.530Z,25.06
2019-05-26T07:55:56.708Z,24.82
2019-05-26T07:58:22.903Z,24.03
2019-05-26T08:00:49.104Z,23.56
2019-05-26T08:03:15.372Z,24.57
2019-05-26T08:05:41.662Z,25.15
2019-05-26T08:08:13.035Z,24.52
2019-05-26T08:10:35.936Z,24.29
2019-05-26T08:13:02.106Z,22.20
2019-05-26T08:15:29.441Z,22.46
2019-05-26T08:17:55.609Z,22.66
2019-05-26T08:20:22.098Z,25.83
2019-05-26T08:22:48.319Z,24.91
2019-05-26T08:25:14.480Z,26.10
2019-05-26T08:27:40.856Z,26.19
2019-05-26T08:30:07.612Z,26.66
2019-05-26T08:32:33.768Z,25.25
2019-05-26T08:34:59.970Z,22.90
2019-05-26T08:37:26.185Z,22.90
2019-05-26T08:39:52.343Z,22.54
2019-05-26T08:42:26.805Z,23.91
2019-05-26T08:44:46.623Z,23.72
2019-05-26T08:47:13.338Z,24.33
2019-05-26T08:49:39.503Z,23.63
2019-05-26T08:52:05.713Z,22.80
2019-05-26T08:54:31.893Z,23.78
2019-05-26T08:56:58.167Z,23.70
2019-05-26T08:59:24.503Z,24.12
2019-05-26T09:01:50.690Z,25.78
2019-05-26T09:04:16.863Z,24.08
2019-05-26T09:06:43.072Z,24.44
2019-05-26T09:09:09.233Z,24.01
2019-05-26T09:11:35.417Z,23.54
2019-05-26T09:14:01.603Z,22.96
2019-05-26T09:16:27.893Z,22.73
2019-05-26T09:18:54.070Z,22.50
2019-05-26T09:21:20.281Z,23.77
2019-05-26T09:23:46.564Z,21.59
2019-05-26T09:26:12.738Z,22.12
2019-05-26T09:28:39.014Z,22.35
2019-05-26T09:31:05.228Z,22.05
2019-05-26T09:33:31.426Z,23.51
2019-05-26T09:35:57.670Z,23.98
2019-05-26T09:38:23.872Z,22.94
2019-05-26T09:40:50.145Z,21.76
2019-05-26T09:43:16.864Z,21.48
2019-05-26T09:45:43.457Z,21.48
2019-05-26T09:48:09.620Z,23.22
2019-05-26T09:50:35.827Z,25.01
2019-05-26T09:53:01.992Z,24.81
2019-05-26T09:55:28.153Z,24.66
2019-05-26T09:57:54.370Z,22.61
2019-05-26T10:00:21.744Z,22.74
2019-05-26T10:02:47.940Z,21.55
2019-05-26T10:05:14.116Z,21.55
2019-05-26T10:07:40.293Z,23.53
2019-05-26T10:10:07.664Z,22.50
2019-05-26T10:12:33.889Z,21.96
2019-05-26T10:15:00.069Z,21.67
2019-05-26T10:17:26.300Z,23.55
2019-05-26T10:19:52.608Z,23.55
2019-05-26T10:22:18.779Z,24.73
2019-05-26T10:24:44.948Z,23.29
2019-05-26T10:27:11.317Z,23.15
2019-05-26T10:29:37.486Z,21.86
2019-05-26T10:32:03.780Z,22.09
2019-05-26T10:34:30.488Z,21.43
2019-05-26T10:36:56.868Z,21.05
2019-05-26T10:39:23.035Z,21.15
2019-05-26T10:41:49.284Z,21.32
2019-05-26T10:44:15.477Z,20.29
2019-05-26T10:46:41.647Z,20.14
2019-05-26T10:49:07.886Z,20.67
2019-05-26T10:51:34.122Z,21.16
2019-05-26T10:54:00.351Z,19.75
2019-05-26T10:56:26.682Z,19.25
2019-05-26T10:58:52.972Z,21.46
2019-05-26T11:01:19.127Z,22.89
2019-05-26T11:03:45.328Z,21.29
2019-05-26T11:06:11.519Z,21.29
2019-05-26T11:08:37.668Z,19.97
2019-05-26T11:11:03.970Z,21.22
2019-05-26T11:13:30.656Z,20.41
2019-05-26T11:15:56.882Z,20.61
2019-05-26T11:18:24.089Z,19.23
2019-05-26T11:20:50.265Z,19.31
2019-05-26T11:23:16.437Z,19.76
2019-05-26T11:25:42.638Z,20.23
2019-05-26T11:28:08.820Z,21.89
2019-05-26T11:30:34.986Z,20.18
2019-05-26T11:33:01.171Z,18.78
2019-05-26T11:35:27.355Z,19.04
2019-05-26T11:37:53.516Z,18.34
2019-05-26T11:40:20.026Z,20.75
2019-05-26T11:42:46.307Z,19.86
2019-05-26T11:45:12.870Z,18.42
2019-05-26T11:47:39.080Z,18.61
2019-05-26T11:50:07.263Z,19.24
2019-05-26T11:52:33.533Z,22.37
2019-05-26T11:54:59.769Z,22.80
2019-05-26T11:57:26.187Z,21.04
2019-05-26T11:59:52.409Z,19.55
2019-05-26T12:02:18.770Z,19.61
2019-05-26T12:04:45.147Z,21.29
2019-05-26T12:07:11.675Z,22.04
2019-05-26T12:09:38.069Z,21.48
2019-05-26T12:12:07.743Z,20.90
2019-05-26T12:14:35.650Z,20.90
2019-05-26T12:17:02.238Z,20.79
2019-05-26T12:19:29.574Z,21.88
2019-05-26T12:21:55.969Z,21.47
2019-05-26T12:24:23.550Z,20.93
2019-05-26T12:26:49.939Z,20.49
2019-05-26T12:29:18.072Z,20.66
2019-05-26T12:31:44.295Z,19.90
2019-05-26T12:34:10.475Z,18.45
2019-05-26T12:36:39.141Z,18.07
2019-05-26T12:39:07.460Z,17.34
2019-05-26T12:41:37.047Z,17.51
2019-05-26T12:44:01.706Z,19.76
2019-05-26T12:46:27.915Z,20.17
2019-05-26T12:48:54.108Z,21.46
2019-05-26T12:51:20.286Z,20.46
2019-05-26T12:53:46.476Z,19.26
2019-05-26T12:56:12.753Z,18.00
2019-05-26T12:58:38.931Z,17.33
2019-05-26T13:01:05.131Z,17.99
2019-05-26T13:03:31.306Z,19.28
2019-05-26T13:05:58.777Z,17.24
2019-05-26T13:08:24.996Z,16.32
2019-05-26T13:10:51.181Z,16.33
2019-05-26T13:13:17.334Z,17.77
2019-05-26T13:15:43.519Z,17.38
2019-05-26T13:18:09.706Z,16.71
2019-05-26T13:20:35.928Z,15.99
2019-05-26T13:23:02.134Z,16.46
2019-05-26T13:25:28.311Z,19.07
2019-05-26T13:27:54.465Z,17.53
2019-05-26T13:30:22.964Z,17.13
2019-05-26T13:32:49.246Z,17.98
2019-05-26T13:35:16.423Z,16.89
2019-05-26T13:37:42.617Z,18.32
2019-05-26T13:40:08.967Z,18.10
2019-05-26T13:42:35.147Z,17.43
2019-05-26T13:45:01.373Z,17.49
2019-05-26T13:47:27.517Z,18.14
2019-05-26T13:49:55.284Z,17.65
2019-05-26T13:52:21.779Z,17.47
2019-05-26T13:54:47.947Z,17.47
2019-05-26T13:57:14.218Z,17.91
2019-05-26T13:59:40.612Z,19.19
2019-05-26T14:02:06.782Z,18.23
2019-05-26T14:04:32.977Z,17.54
2019-05-26T14:06:59.188Z,17.57
2019-05-26T14:09:25.368Z,18.75
2019-05-26T14:11:51.555Z,19.93
2019-05-26T14:14:18.045Z,21.08
2019-05-26T14:16:45.320Z,19.45
2019-05-26T14:19:11.701Z,17.71
2019-05-26T14:21:38.980Z,17.17
2019-05-26T14:24:05.144Z,17.49
2019-05-26T14:26:31.302Z,17.48
2019-05-26T14:28:57.503Z,17.36
2019-05-26T14:31:23.679Z,17.29
2019-05-26T14:33:49.855Z,17.36
2019-05-26T14:36:16.045Z,17.66
2019-05-26T14:38:43.733Z,16.64
2019-05-26T14:41:10.091Z,16.68
2019-05-26T14:43:36.302Z,15.54
2019-05-26T14:46:02.479Z,16.87
2019-05-26T14:48:28.662Z,16.87
2019-05-26T14:50:54.864Z,17.15
2019-05-26T14:53:21.016Z,18.29
2019-05-26T14:55:47.189Z,19.31
2019-05-26T14:58:16.091Z,19.12
2019-05-26T15:00:41.533Z,18.51
2019-05-26T15:03:07.711Z,18.97
2019-05-26T15:05:33.907Z,19.43
2019-05-26T15:08:00.236Z,19.40
2019-05-26T15:10:26.415Z,19.54
2019-05-26T15:12:52.621Z,19.83
2019-05-26T15:15:19.583Z,20.49
2019-05-26T15:17:45.746Z,19.71
2019-05-26T15:20:12.863Z,19.70
2019-05-26T15:22:39.037Z,19.70
2019-05-26T15:25:05.918Z,20.71
2019-05-26T15:27:32.119Z,20.04
2019-05-26T15:29:58.288Z,21.11
2019-05-26T15:32:24.572Z,20.44
2019-05-26T15:34:51.684Z,20.66
2019-05-26T15:37:17.852Z,20.07
2019-05-26T15:39:44.031Z,20.32
2019-05-26T15:42:10.218Z,20.28
2019-05-26T15:44:36.397Z,19.48
2019-05-26T15:47:03.426Z,19.32
2019-05-26T15:49:29.655Z,20.04
2019-05-26T15:51:55.804Z,19.65
2019-05-26T15:54:22.071Z,20.79
2019-05-26T15:56:48.286Z,20.81
2019-05-26T15:59:14.442Z,21.36
2019-05-26T16:01:40.633Z,21.74
2019-05-26T16:04:06.963Z,22.08
2019-05-26T16:06:33.132Z,22.98
2019-05-26T16:08:59.298Z,22.72
2019-05-26T16:14:15.167Z,22.21
2019-05-26T16:16:43.595Z,22.18
2019-05-26T16:19:13.814Z,22.33
2019-05-26T16:21:39.979Z,22.49
2019-05-26T16:24:07.035Z,22.68
2019-05-26T16:26:33.228Z,23.20
2019-05-26T16:29:01.710Z,23.72
2019-05-26T16:31:27.914Z,24.44
2019-05-26T16:33:54.090Z,25.61
2019-05-26T16:36:21.365Z,25.61
2019-05-26T16:38:47.898Z,24.66
2019-05-26T16:41:14.080Z,24.29
2019-05-26T16:43:40.260Z,23.75
2019-05-26T16:46:06.576Z,24.05
2019-05-26T16:48:32.792Z,25.09
2019-05-26T16:50:59.157Z,25.45
2019-05-26T16:53:25.337Z,24.30
2019-05-26T16:55:51.517Z,24.21
2019-05-26T16:58:17.673Z,24.12
2019-05-26T17:00:43.997Z,24.03
2019-05-26T17:03:10.175Z,24.94
2019-05-26T17:05:36.335Z,24.83
2019-05-26T17:08:02.625Z,25.71
2019-05-26T17:10:28.804Z,25.79
2019-05-26T17:12:54.978Z,26.17
2019-05-26T17:15:21.316Z,25.87
2019-05-26T17:17:47.486Z,26.38
2019-05-26T17:20:13.855Z,27.07
2019-05-26T17:22:40.063Z,27.33
2019-05-26T17:25:07.049Z,27.25
2019-05-26T17:27:33.222Z,27.62
2019-05-26T17:29:59.416Z,27.72
2019-05-26T17:32:25.578Z,28.24
2019-05-26T17:34:51.760Z,28.81
2019-05-26T17:37:17.950Z,28.60
2019-05-26T17:39:44.136Z,28.75
2019-05-26T17:42:10.308Z,29.29
2019-05-26T17:44:36.508Z,29.77
2019-05-26T17:47:02.666Z,30.31
2019-05-26T17:49:28.850Z,30.94
2019-05-26T17:51:55.068Z,31.05
2019-05-26T17:54:21.231Z,30.90
2019-05-26T17:56:47.414Z,30.78
2019-05-26T17:59:13.813Z,31.48
2019-05-26T18:01:40.184Z,31.98
2019-05-26T18:04:06.464Z,32.19
2019-05-26T18:06:32.711Z,32.45
2019-05-26T18:08:59.011Z,32.29
2019-05-26T18:11:25.196Z,32.78
2019-05-26T18:13:51.545Z,32.23
2019-05-26T18:16:17.714Z,32.48
2019-05-26T18:18:43.874Z,32.98
2019-05-26T18:21:10.072Z,32.97
2019-05-26T18:23:36.362Z,32.59
2019-05-26T18:26:02.591Z,33.36
2019-05-26T18:28:28.778Z,32.61
2019-05-26T18:30:55.064Z,32.09
2019-05-26T18:33:21.356Z,31.71
2019-05-26T18:35:47.544Z,31.75
2019-05-26T18:38:13.742Z,31.52
2019-05-26T18:40:40.218Z,31.72
2019-05-26T18:43:06.409Z,32.29
2019-05-26T18:45:32.568Z,32.83
2019-05-26T18:48:03.200Z,32.51
2019-05-26T18:50:28.454Z,32.47
2019-05-26T18:52:54.748Z,32.35
2019-05-26T18:55:21.077Z,32.21
2019-05-26T18:57:47.390Z,32.67
2019-05-26T19:00:14.067Z,32.56
2019-05-26T19:02:40.364Z,32.44
2019-05-26T19:05:06.982Z,32.34
2019-05-26T19:07:33.147Z,32.34
2019-05-26T19:09:59.315Z,32.40
2019-05-26T19:12:25.627Z,32.39
2019-05-26T19:14:51.789Z,32.42
2019-05-26T19:17:18.570Z,32.31
2019-05-26T19:19:44.795Z,32.55
2019-05-26T19:22:10.951Z,32.58
2019-05-26T19:24:37.129Z,32.53
2019-05-26T19:27:03.543Z,32.60
2019-05-26T19:29:29.708Z,33.28
2019-05-26T19:31:55.903Z,33.16
2019-05-26T19:34:22.103Z,33.72
2019-05-26T19:36:48.296Z,33.69
2019-05-26T19:39:14.497Z,33.09
2019-05-26T19:41:41.498Z,32.83
2019-05-26T19:44:07.760Z,33.05
2019-05-26T19:46:33.943Z,33.17
2019-05-26T19:49:00.175Z,32.73
2019-05-26T19:51:26.341Z,32.70
2019-05-26T19:53:52.524Z,32.91
2019-05-26T19:56:18.732Z,33.76
2019-05-26T19:58:45.009Z,33.57
2019-05-26T20:01:11.200Z,34.05
2019-05-26T20:03:37.423Z,33.64
2019-05-26T20:06:03.692Z,32.89
2019-05-26T20:08:29.872Z,33.09
2019-05-26T20:10:56.092Z,33.73
2019-05-26T20:13:22.255Z,33.85
2019-05-26T20:15:48.428Z,33.82
2019-05-26T20:18:14.638Z,33.85
2019-05-26T20:20:40.802Z,33.25
2019-05-26T20:23:06.965Z,33.28
2019-05-26T20:25:33.174Z,33.10
2019-05-26T20:27:59.346Z,33.13
2019-05-26T20:30:25.502Z,33.77
2019-05-26T20:32:51.748Z,34.30
2019-05-26T20:35:18.007Z,35.01
2019-05-26T20:37:44.172Z,35.11
2019-05-26T20:40:11.186Z,35.31
2019-05-26T20:42:37.343Z,35.90
2019-05-26T20:45:27.931Z,37.17
2019-05-26T20:47:54.096Z,37.38
2019-05-26T20:50:29.055Z,39.97
2019-05-26T20:52:48.413Z,39.61
2019-05-26T20:55:14.547Z,40.00
2019-05-26T20:57:40.710Z,39.14
2019-05-26T21:00:10.554Z,39.31
2019-05-26T21:02:37.512Z,37.66
2019-05-26T21:05:05.109Z,39.18
2019-05-26T21:07:31.426Z,38.72
2019-05-26T21:09:57.598Z,38.03
2019-05-26T21:12:23.753Z,37.81
2019-05-26T21:14:50.074Z,36.74
2019-05-26T21:17:16.252Z,37.11
2019-05-26T21:19:42.421Z,37.26
2019-05-26T21:22:08.600Z,37.10
2019-05-26T21:24:34.790Z,36.44
2019-05-26T21:27:00.966Z,36.75
2019-05-26T21:29:27.206Z,36.13
2019-05-26T21:31:53.390Z,35.92
2019-05-26T21:34:19.853Z,36.31
2019-05-26T21:36:46.048Z,36.22
2019-05-26T21:39:12.231Z,35.24
2019-05-26T21:41:38.420Z,35.44
2019-05-26T21:44:04.618Z,35.71
2019-05-26T21:46:30.899Z,34.42
2019-05-26T21:48:57.192Z,34.58
2019-05-26T21:51:23.379Z,35.25
2019-05-26T21:53:49.562Z,34.47
2019-05-26T21:56:15.748Z,34.27
2019-05-26T21:58:41.942Z,33.42
2019-05-26T22:01:08.521Z,33.31
2019-05-26T22:03:34.710Z,33.84
2019-05-26T22:06:00.905Z,33.81
2019-05-26T22:08:27.090Z,33.91
2019-05-26T22:10:53.248Z,33.63
2019-05-26T22:13:19.461Z,34.17
2019-05-26T22:15:45.761Z,33.88
2019-05-26T22:18:12.005Z,34.35
2019-05-26T22:20:38.501Z,33.64
2019-05-26T22:23:04.989Z,34.17
2019-05-26T22:25:33.605Z,34.58
2019-05-26T22:28:01.155Z,34.82
2019-05-26T22:30:28.673Z,34.83
2019-05-26T22:32:54.884Z,34.69
2019-05-26T22:35:21.138Z,34.29
2019-05-26T22:37:47.317Z,35.11
2019-05-26T22:40:14.195Z,35.11
2019-05-26T22:42:42.520Z,34.67
2019-05-26T22:45:09.497Z,35.20
2019-05-26T22:47:35.763Z,35.04
2019-05-26T22:50:05.070Z,35.34
2019-05-26T22:52:31.421Z,35.22
2019-05-26T22:54:59.474Z,35.12
2019-05-26T22:57:25.735Z,35.54
2019-05-26T22:59:52.003Z,34.95
2019-05-26T23:02:18.190Z,35.80
2019-05-26T23:04:44.435Z,36.11
2019-05-26T23:07:10.714Z,35.65
2019-05-26T23:09:36.892Z,35.78
2019-05-26T23:12:03.184Z,36.61
2019-05-26T23:14:29.454Z,36.36
2019-05-26T23:16:55.640Z,36.34
2019-05-26T23:19:21.835Z,36.80
2019-05-26T23:21:48.014Z,36.36
2019-05-26T23:24:14.188Z,36.76
2019-05-26T23:26:40.399Z,37.06
2019-05-26T23:29:06.699Z,37.51
2019-05-26T23:31:32.852Z,37.32
2019-05-26T23:33:59.046Z,37.50
2019-05-26T23:36:25.241Z,37.26
2019-05-26T23:38:51.429Z,37.25
2019-05-26T23:41:17.612Z,37.16
2019-05-26T23:43:43.798Z,37.61
2019-05-26T23:46:09.977Z,37.39
2019-05-26T23:48:36.199Z,37.88
2019-05-26T23:51:02.465Z,37.75
2019-05-26T23:53:28.643Z,37.75
2019-05-26T23:55:54.834Z,38.34
2019-05-26T23:58:20.999Z,38.58
